sensor_id;sensor_type;location;lat;lon;timestamp;P1;durP1;ratioP1;P2;durP2;ratioP2
16254;SDS011;8235;52.198;9.904;2023-06-14T00:01:05;4.40;;;2.70;;
16254;SDS011;8235;52.198;9.904;2023-06-14T00:03:33;3.10;;;2.60;;
16254;SDS011;8235;52.198;9.904;2023-06-14T00:06:00;2.90;;;2.70;;
16254;SDS011;8235;52.198;9.904;2023-06-14T00:08:26;2.67;;;2.37;;
16254;SDS011;8235;52.198;9.904;2023-06-14T00:10:53;4.23;;;2.87;;
16254;SDS011;8235;52.198;9.904;2023-06-14T00:13:19;5.03;;;2.30;;
16254;SDS011;8235;52.198;9.904;2023-06-14T00:15:46;4.67;;;2.77;;
16254;SDS011;8235;52.198;9.904;2023-06-14T00:18:13;4.00;;;2.67;;
16254;SDS011;8235;52.198;9.904;2023-06-14T00:20:41;5.43;;;3.20;;
16254;SDS011;8235;52.198;9.904;2023-06-14T00:23:08;3.03;;;2.70;;
16254;SDS011;8235;52.198;9.904;2023-06-14T00:25:34;4.07;;;3.00;;
16254;SDS011;8235;52.198;9.904;2023-06-14T00:28:01;3.80;;;2.80;;
16254;SDS011;8235;52.198;9.904;2023-06-14T00:30:27;3.73;;;2.60;;
16254;SDS011;8235;52.198;9.904;2023-06-14T00:32:55;2.70;;;2.50;;
16254;SDS011;8235;52.198;9.904;2023-06-14T00:35:22;7.20;;;3.23;;
16254;SDS011;8235;52.198;9.904;2023-06-14T00:37:50;3.27;;;2.97;;
16254;SDS011;8235;52.198;9.904;2023-06-14T00:40:16;3.67;;;2.77;;
16254;SDS011;8235;52.198;9.904;2023-06-14T00:42:43;4.90;;;2.60;;
16254;SDS011;8235;52.198;9.904;2023-06-14T00:45:10;3.90;;;2.60;;
16254;SDS011;8235;52.198;9.904;2023-06-14T00:47:36;3.00;;;2.50;;
16254;SDS011;8235;52.198;9.904;2023-06-14T00:50:06;3.40;;;2.50;;
16254;SDS011;8235;52.198;9.904;2023-06-14T00:52:33;3.67;;;2.80;;
16254;SDS011;8235;52.198;9.904;2023-06-14T00:55:02;5.70;;;3.03;;
16254;SDS011;8235;52.198;9.904;2023-06-14T00:57:29;3.27;;;2.80;;
16254;SDS011;8235;52.198;9.904;2023-06-14T00:59:55;4.83;;;2.73;;
16254;SDS011;8235;52.198;9.904;2023-06-14T01:02:22;3.00;;;2.60;;
16254;SDS011;8235;52.198;9.904;2023-06-14T01:04:49;5.23;;;2.60;;
16254;SDS011;8235;52.198;9.904;2023-06-14T01:07:20;3.00;;;2.70;;
16254;SDS011;8235;52.198;9.904;2023-06-14T01:09:58;5.00;;;2.67;;
16254;SDS011;8235;52.198;9.904;2023-06-14T01:12:39;3.30;;;2.73;;
16254;SDS011;8235;52.198;9.904;2023-06-14T01:15:12;4.00;;;2.70;;
16254;SDS011;8235;52.198;9.904;2023-06-14T01:17:39;3.50;;;2.53;;
16254;SDS011;8235;52.198;9.904;2023-06-14T01:20:09;3.03;;;2.73;;
16254;SDS011;8235;52.198;9.904;2023-06-14T01:22:44;2.67;;;2.40;;
16254;SDS011;8235;52.198;9.904;2023-06-14T01:25:16;3.87;;;2.73;;
16254;SDS011;8235;52.198;9.904;2023-06-14T01:27:45;3.10;;;2.80;;
16254;SDS011;8235;52.198;9.904;2023-06-14T01:30:13;3.77;;;2.90;;
16254;SDS011;8235;52.198;9.904;2023-06-14T01:32:41;3.10;;;2.80;;
16254;SDS011;8235;52.198;9.904;2023-06-14T01:35:08;4.50;;;3.07;;
16254;SDS011;8235;52.198;9.904;2023-06-14T01:37:34;4.90;;;2.90;;
16254;SDS011;8235;52.198;9.904;2023-06-14T01:40:04;4.40;;;2.80;;
16254;SDS011;8235;52.198;9.904;2023-06-14T01:42:33;6.27;;;3.10;;
16254;SDS011;8235;52.198;9.904;2023-06-14T01:45:03;3.17;;;2.87;;
16254;SDS011;8235;52.198;9.904;2023-06-14T01:47:31;3.10;;;2.80;;
16254;SDS011;8235;52.198;9.904;2023-06-14T01:49:58;3.67;;;2.80;;
16254;SDS011;8235;52.198;9.904;2023-06-14T01:52:25;6.10;;;2.80;;
16254;SDS011;8235;52.198;9.904;2023-06-14T01:54:52;4.87;;;3.10;;
16254;SDS011;8235;52.198;9.904;2023-06-14T01:57:20;3.73;;;3.30;;
16254;SDS011;8235;52.198;9.904;2023-06-14T01:59:47;4.90;;;3.23;;
16254;SDS011;8235;52.198;9.904;2023-06-14T02:02:14;3.47;;;2.97;;
16254;SDS011;8235;52.198;9.904;2023-06-14T02:04:41;4.53;;;3.00;;
16254;SDS011;8235;52.198;9.904;2023-06-14T02:07:07;3.50;;;2.50;;
16254;SDS011;8235;52.198;9.904;2023-06-14T02:09:34;5.93;;;3.50;;
16254;SDS011;8235;52.198;9.904;2023-06-14T02:12:01;4.60;;;3.43;;
16254;SDS011;8235;52.198;9.904;2023-06-14T02:14:28;3.60;;;2.90;;
16254;SDS011;8235;52.198;9.904;2023-06-14T02:16:55;3.67;;;2.87;;
16254;SDS011;8235;52.198;9.904;2023-06-14T02:19:21;5.37;;;2.90;;
16254;SDS011;8235;52.198;9.904;2023-06-14T02:21:48;3.23;;;2.67;;
16254;SDS011;8235;52.198;9.904;2023-06-14T02:24:15;3.50;;;3.07;;
16254;SDS011;8235;52.198;9.904;2023-06-14T02:26:41;4.80;;;2.80;;
16254;SDS011;8235;52.198;9.904;2023-06-14T02:29:07;4.30;;;2.93;;
16254;SDS011;8235;52.198;9.904;2023-06-14T02:31:38;3.53;;;3.00;;
16254;SDS011;8235;52.198;9.904;2023-06-14T02:34:05;5.00;;;3.20;;
16254;SDS011;8235;52.198;9.904;2023-06-14T02:36:33;2.90;;;2.70;;
16254;SDS011;8235;52.198;9.904;2023-06-14T02:39:00;3.33;;;3.03;;
16254;SDS011;8235;52.198;9.904;2023-06-14T02:41:26;3.20;;;2.87;;
16254;SDS011;8235;52.198;9.904;2023-06-14T02:43:53;4.40;;;2.87;;
16254;SDS011;8235;52.198;9.904;2023-06-14T02:46:20;3.70;;;3.30;;
16254;SDS011;8235;52.198;9.904;2023-06-14T02:48:48;4.07;;;3.20;;
16254;SDS011;8235;52.198;9.904;2023-06-14T02:51:15;7.73;;;3.17;;
16254;SDS011;8235;52.198;9.904;2023-06-14T02:53:41;3.50;;;3.20;;
16254;SDS011;8235;52.198;9.904;2023-06-14T02:56:08;4.27;;;3.07;;
16254;SDS011;8235;52.198;9.904;2023-06-14T02:58:35;4.17;;;2.90;;
16254;SDS011;8235;52.198;9.904;2023-06-14T03:01:02;6.97;;;3.23;;
16254;SDS011;8235;52.198;9.904;2023-06-14T03:03:28;4.90;;;3.17;;
16254;SDS011;8235;52.198;9.904;2023-06-14T03:05:56;3.40;;;3.07;;
16254;SDS011;8235;52.198;9.904;2023-06-14T03:08:29;3.70;;;3.07;;
16254;SDS011;8235;52.198;9.904;2023-06-14T03:10:56;4.37;;;3.20;;
16254;SDS011;8235;52.198;9.904;2023-06-14T03:13:23;3.67;;;3.20;;
16254;SDS011;8235;52.198;9.904;2023-06-14T03:15:49;4.10;;;3.13;;
16254;SDS011;8235;52.198;9.904;2023-06-14T03:18:16;6.63;;;3.77;;
16254;SDS011;8235;52.198;9.904;2023-06-14T03:20:44;9.37;;;3.40;;
16254;SDS011;8235;52.198;9.904;2023-06-14T03:23:12;5.23;;;3.73;;
16254;SDS011;8235;52.198;9.904;2023-06-14T03:25:38;7.73;;;3.33;;
16254;SDS011;8235;52.198;9.904;2023-06-14T03:28:07;4.67;;;3.93;;
16254;SDS011;8235;52.198;9.904;2023-06-14T03:30:33;3.50;;;3.20;;
16254;SDS011;8235;52.198;9.904;2023-06-14T03:33:00;3.97;;;3.60;;
16254;SDS011;8235;52.198;9.904;2023-06-14T03:35:27;4.83;;;4.00;;
16254;SDS011;8235;52.198;9.904;2023-06-14T03:37:54;3.93;;;3.43;;
16254;SDS011;8235;52.198;9.904;2023-06-14T03:40:22;4.77;;;3.57;;
16254;SDS011;8235;52.198;9.904;2023-06-14T03:42:50;3.43;;;3.13;;
16254;SDS011;8235;52.198;9.904;2023-06-14T03:45:17;6.33;;;3.50;;
16254;SDS011;8235;52.198;9.904;2023-06-14T03:47:43;5.50;;;3.67;;
16254;SDS011;8235;52.198;9.904;2023-06-14T03:50:10;5.80;;;3.80;;
16254;SDS011;8235;52.198;9.904;2023-06-14T03:52:37;4.80;;;3.70;;
16254;SDS011;8235;52.198;9.904;2023-06-14T03:55:04;4.53;;;2.93;;
16254;SDS011;8235;52.198;9.904;2023-06-14T03:57:32;4.27;;;3.30;;
16254;SDS011;8235;52.198;9.904;2023-06-14T03:59:59;4.30;;;3.07;;
16254;SDS011;8235;52.198;9.904;2023-06-14T04:02:25;4.50;;;3.20;;
16254;SDS011;8235;52.198;9.904;2023-06-14T04:04:53;3.13;;;2.83;;
16254;SDS011;8235;52.198;9.904;2023-06-14T04:07:20;3.07;;;2.77;;
16254;SDS011;8235;52.198;9.904;2023-06-14T04:09:47;4.50;;;3.10;;
16254;SDS011;8235;52.198;9.904;2023-06-14T04:12:14;4.77;;;3.30;;
16254;SDS011;8235;52.198;9.904;2023-06-14T04:14:42;4.13;;;3.43;;
16254;SDS011;8235;52.198;9.904;2023-06-14T04:17:09;6.80;;;3.27;;
16254;SDS011;8235;52.198;9.904;2023-06-14T04:19:35;4.10;;;3.27;;
16254;SDS011;8235;52.198;9.904;2023-06-14T04:22:02;4.03;;;2.90;;
16254;SDS011;8235;52.198;9.904;2023-06-14T04:24:28;3.20;;;3.00;;
16254;SDS011;8235;52.198;9.904;2023-06-14T04:26:57;4.47;;;3.17;;
16254;SDS011;8235;52.198;9.904;2023-06-14T04:29:26;3.30;;;2.93;;
16254;SDS011;8235;52.198;9.904;2023-06-14T04:31:56;4.33;;;3.27;;
16254;SDS011;8235;52.198;9.904;2023-06-14T04:34:25;5.77;;;3.00;;
16254;SDS011;8235;52.198;9.904;2023-06-14T04:36:54;5.20;;;3.20;;
16254;SDS011;8235;52.198;9.904;2023-06-14T04:39:23;6.43;;;3.17;;
16254;SDS011;8235;52.198;9.904;2023-06-14T04:41:50;4.40;;;3.27;;
16254;SDS011;8235;52.198;9.904;2023-06-14T04:44:18;2.80;;;2.60;;
16254;SDS011;8235;52.198;9.904;2023-06-14T04:46:45;3.67;;;2.53;;
16254;SDS011;8235;52.198;9.904;2023-06-14T04:49:13;3.30;;;3.00;;
16254;SDS011;8235;52.198;9.904;2023-06-14T04:51:40;3.33;;;2.40;;
16254;SDS011;8235;52.198;9.904;2023-06-14T04:54:07;4.97;;;2.43;;
16254;SDS011;8235;52.198;9.904;2023-06-14T04:56:35;3.93;;;2.77;;
16254;SDS011;8235;52.198;9.904;2023-06-14T04:59:02;2.97;;;2.60;;
16254;SDS011;8235;52.198;9.904;2023-06-14T05:01:30;3.17;;;2.50;;
16254;SDS011;8235;52.198;9.904;2023-06-14T05:03:57;2.63;;;2.43;;
16254;SDS011;8235;52.198;9.904;2023-06-14T05:06:25;3.93;;;2.60;;
16254;SDS011;8235;52.198;9.904;2023-06-14T05:08:52;2.63;;;2.43;;
16254;SDS011;8235;52.198;9.904;2023-06-14T05:11:18;2.60;;;2.40;;
16254;SDS011;8235;52.198;9.904;2023-06-14T05:13:45;3.30;;;2.60;;
16254;SDS011;8235;52.198;9.904;2023-06-14T05:16:12;2.70;;;2.17;;
16254;SDS011;8235;52.198;9.904;2023-06-14T05:18:40;4.90;;;2.20;;
16254;SDS011;8235;52.198;9.904;2023-06-14T05:21:07;4.23;;;2.37;;
16254;SDS011;8235;52.198;9.904;2023-06-14T05:23:35;5.00;;;2.47;;
16254;SDS011;8235;52.198;9.904;2023-06-14T05:26:01;3.67;;;2.20;;
16254;SDS011;8235;52.198;9.904;2023-06-14T05:28:29;3.17;;;2.87;;
16254;SDS011;8235;52.198;9.904;2023-06-14T05:30:56;3.27;;;2.40;;
16254;SDS011;8235;52.198;9.904;2023-06-14T05:33:23;4.73;;;2.50;;
16254;SDS011;8235;52.198;9.904;2023-06-14T05:35:50;5.57;;;2.30;;
16254;SDS011;8235;52.198;9.904;2023-06-14T05:38:16;3.43;;;2.20;;
16254;SDS011;8235;52.198;9.904;2023-06-14T05:40:44;4.30;;;2.30;;
16254;SDS011;8235;52.198;9.904;2023-06-14T05:43:11;5.03;;;2.07;;
16254;SDS011;8235;52.198;9.904;2023-06-14T05:45:37;3.37;;;2.10;;
16254;SDS011;8235;52.198;9.904;2023-06-14T05:48:04;3.30;;;2.10;;
16254;SDS011;8235;52.198;9.904;2023-06-14T05:50:30;4.00;;;2.30;;
16254;SDS011;8235;52.198;9.904;2023-06-14T05:52:57;3.00;;;2.00;;
16254;SDS011;8235;52.198;9.904;2023-06-14T05:55:24;4.03;;;2.30;;
16254;SDS011;8235;52.198;9.904;2023-06-14T05:57:53;3.10;;;2.30;;
16254;SDS011;8235;52.198;9.904;2023-06-14T06:00:19;3.10;;;2.03;;
16254;SDS011;8235;52.198;9.904;2023-06-14T06:02:46;2.60;;;2.10;;
16254;SDS011;8235;52.198;9.904;2023-06-14T06:05:14;2.63;;;2.20;;
16254;SDS011;8235;52.198;9.904;2023-06-14T06:07:41;7.90;;;2.23;;
16254;SDS011;8235;52.198;9.904;2023-06-14T06:10:09;3.30;;;2.37;;
16254;SDS011;8235;52.198;9.904;2023-06-14T06:12:36;3.17;;;2.03;;
16254;SDS011;8235;52.198;9.904;2023-06-14T06:15:04;2.90;;;2.47;;
16254;SDS011;8235;52.198;9.904;2023-06-14T06:17:32;2.60;;;2.00;;
16254;SDS011;8235;52.198;9.904;2023-06-14T06:19:59;4.93;;;2.60;;
16254;SDS011;8235;52.198;9.904;2023-06-14T06:22:26;2.57;;;2.33;;
16254;SDS011;8235;52.198;9.904;2023-06-14T06:24:52;5.20;;;2.73;;
16254;SDS011;8235;52.198;9.904;2023-06-14T06:27:19;5.20;;;3.07;;
16254;SDS011;8235;52.198;9.904;2023-06-14T06:29:45;2.90;;;2.50;;
16254;SDS011;8235;52.198;9.904;2023-06-14T06:32:14;4.37;;;2.93;;
16254;SDS011;8235;52.198;9.904;2023-06-14T06:34:41;5.17;;;2.70;;
16254;SDS011;8235;52.198;9.904;2023-06-14T06:37:07;3.47;;;2.50;;
16254;SDS011;8235;52.198;9.904;2023-06-14T06:39:34;3.27;;;2.70;;
16254;SDS011;8235;52.198;9.904;2023-06-14T06:42:01;4.30;;;2.93;;
16254;SDS011;8235;52.198;9.904;2023-06-14T06:44:27;3.77;;;2.43;;
16254;SDS011;8235;52.198;9.904;2023-06-14T06:46:53;2.60;;;2.40;;
16254;SDS011;8235;52.198;9.904;2023-06-14T06:49:21;3.47;;;2.50;;
16254;SDS011;8235;52.198;9.904;2023-06-14T06:51:58;3.50;;;2.50;;
16254;SDS011;8235;52.198;9.904;2023-06-14T06:54:26;3.23;;;2.10;;
16254;SDS011;8235;52.198;9.904;2023-06-14T06:56:53;3.77;;;2.57;;
16254;SDS011;8235;52.198;9.904;2023-06-14T06:59:19;3.13;;;2.37;;
16254;SDS011;8235;52.198;9.904;2023-06-14T07:01:46;2.50;;;2.00;;
16254;SDS011;8235;52.198;9.904;2023-06-14T07:04:12;3.73;;;2.17;;
16254;SDS011;8235;52.198;9.904;2023-06-14T07:06:41;2.17;;;1.97;;
16254;SDS011;8235;52.198;9.904;2023-06-14T07:09:07;2.10;;;1.90;;
16254;SDS011;8235;52.198;9.904;2023-06-14T07:11:37;3.13;;;1.93;;
16254;SDS011;8235;52.198;9.904;2023-06-14T07:14:04;4.60;;;2.17;;
16254;SDS011;8235;52.198;9.904;2023-06-14T07:16:31;2.27;;;2.03;;
16254;SDS011;8235;52.198;9.904;2023-06-14T07:18:57;3.10;;;2.30;;
16254;SDS011;8235;52.198;9.904;2023-06-14T07:21:25;2.80;;;1.90;;
16254;SDS011;8235;52.198;9.904;2023-06-14T07:23:53;2.17;;;1.87;;
16254;SDS011;8235;52.198;9.904;2023-06-14T07:26:20;2.43;;;1.80;;
16254;SDS011;8235;52.198;9.904;2023-06-14T07:28:47;2.40;;;1.43;;
16254;SDS011;8235;52.198;9.904;2023-06-14T07:31:14;2.20;;;1.70;;
16254;SDS011;8235;52.198;9.904;2023-06-14T07:33:43;3.00;;;1.73;;
16254;SDS011;8235;52.198;9.904;2023-06-14T07:36:09;2.90;;;1.90;;
16254;SDS011;8235;52.198;9.904;2023-06-14T07:38:36;2.20;;;2.00;;
16254;SDS011;8235;52.198;9.904;2023-06-14T07:41:04;2.40;;;1.87;;
16254;SDS011;8235;52.198;9.904;2023-06-14T07:43:30;2.07;;;1.87;;
16254;SDS011;8235;52.198;9.904;2023-06-14T07:45:57;2.70;;;1.57;;
16254;SDS011;8235;52.198;9.904;2023-06-14T07:48:23;2.20;;;1.70;;
16254;SDS011;8235;52.198;9.904;2023-06-14T07:50:50;2.17;;;1.97;;
16254;SDS011;8235;52.198;9.904;2023-06-14T07:53:16;2.00;;;1.90;;
16254;SDS011;8235;52.198;9.904;2023-06-14T07:55:43;1.70;;;1.60;;
16254;SDS011;8235;52.198;9.904;2023-06-14T07:58:10;2.13;;;1.93;;
16254;SDS011;8235;52.198;9.904;2023-06-14T08:00:38;2.53;;;1.97;;
16254;SDS011;8235;52.198;9.904;2023-06-14T08:03:04;4.03;;;2.43;;
16254;SDS011;8235;52.198;9.904;2023-06-14T08:05:31;2.30;;;1.70;;
16254;SDS011;8235;52.198;9.904;2023-06-14T08:07:58;4.50;;;2.17;;
16254;SDS011;8235;52.198;9.904;2023-06-14T08:10:24;2.83;;;1.90;;
16254;SDS011;8235;52.198;9.904;2023-06-14T08:12:51;2.27;;;1.80;;
16254;SDS011;8235;52.198;9.904;2023-06-14T08:15:18;2.58;;;1.60;;
16254;SDS011;8235;52.198;9.904;2023-06-14T08:17:45;2.00;;;1.90;;
16254;SDS011;8235;52.198;9.904;2023-06-14T08:20:12;3.70;;;1.80;;
16254;SDS011;8235;52.198;9.904;2023-06-14T08:22:41;4.35;;;1.70;;
16254;SDS011;8235;52.198;9.904;2023-06-14T08:25:08;3.70;;;1.50;;
16254;SDS011;8235;52.198;9.904;2023-06-14T08:27:36;2.22;;;1.80;;
16254;SDS011;8235;52.198;9.904;2023-06-14T08:30:02;2.22;;;1.50;;
16254;SDS011;8235;52.198;9.904;2023-06-14T08:32:31;2.75;;;1.80;;
16254;SDS011;8235;52.198;9.904;2023-06-14T08:34:57;2.13;;;1.60;;
16254;SDS011;8235;52.198;9.904;2023-06-14T08:37:24;4.32;;;1.80;;
16254;SDS011;8235;52.198;9.904;2023-06-14T08:39:51;2.53;;;1.73;;
16254;SDS011;8235;52.198;9.904;2023-06-14T08:42:18;1.77;;;1.67;;
16254;SDS011;8235;52.198;9.904;2023-06-14T08:44:47;4.50;;;1.70;;
16254;SDS011;8235;52.198;9.904;2023-06-14T08:47:14;3.17;;;1.83;;
16254;SDS011;8235;52.198;9.904;2023-06-14T08:49:45;3.58;;;2.00;;
16254;SDS011;8235;52.198;9.904;2023-06-14T08:52:13;1.58;;;1.40;;
16254;SDS011;8235;52.198;9.904;2023-06-14T08:54:45;2.42;;;1.85;;
16254;SDS011;8235;52.198;9.904;2023-06-14T08:57:13;2.10;;;1.45;;
16254;SDS011;8235;52.198;9.904;2023-06-14T08:59:44;2.22;;;1.25;;
16254;SDS011;8235;52.198;9.904;2023-06-14T09:02:14;1.60;;;1.50;;
16254;SDS011;8235;52.198;9.904;2023-06-14T09:04:47;1.85;;;1.40;;
16254;SDS011;8235;52.198;9.904;2023-06-14T09:07:14;1.95;;;1.40;;
16254;SDS011;8235;52.198;9.904;2023-06-14T09:09:41;1.50;;;1.38;;
16254;SDS011;8235;52.198;9.904;2023-06-14T09:12:08;1.73;;;1.60;;
16254;SDS011;8235;52.198;9.904;2023-06-14T09:14:36;1.88;;;1.40;;
16254;SDS011;8235;52.198;9.904;2023-06-14T09:17:06;2.30;;;1.50;;
16254;SDS011;8235;52.198;9.904;2023-06-14T09:19:33;1.63;;;1.52;;
16254;SDS011;8235;52.198;9.904;2023-06-14T09:22:02;1.98;;;1.75;;
16254;SDS011;8235;52.198;9.904;2023-06-14T09:24:29;2.97;;;1.42;;
16254;SDS011;8235;52.198;9.904;2023-06-14T09:26:55;4.38;;;1.60;;
16254;SDS011;8235;52.198;9.904;2023-06-14T09:29:23;2.05;;;1.73;;
16254;SDS011;8235;52.198;9.904;2023-06-14T09:31:49;1.98;;;1.60;;
16254;SDS011;8235;52.198;9.904;2023-06-14T09:34:16;3.03;;;1.60;;
16254;SDS011;8235;52.198;9.904;2023-06-14T09:36:44;3.35;;;1.70;;
16254;SDS011;8235;52.198;9.904;2023-06-14T09:39:12;2.72;;;1.60;;
16254;SDS011;8235;52.198;9.904;2023-06-14T09:41:43;3.70;;;1.60;;
16254;SDS011;8235;52.198;9.904;2023-06-14T09:44:10;2.35;;;1.58;;
16254;SDS011;8235;52.198;9.904;2023-06-14T09:46:37;1.60;;;1.42;;
16254;SDS011;8235;52.198;9.904;2023-06-14T09:49:04;1.60;;;1.50;;
16254;SDS011;8235;52.198;9.904;2023-06-14T09:51:31;1.60;;;1.50;;
16254;SDS011;8235;52.198;9.904;2023-06-14T09:53:59;2.63;;;1.50;;
16254;SDS011;8235;52.198;9.904;2023-06-14T09:56:28;1.80;;;1.70;;
16254;SDS011;8235;52.198;9.904;2023-06-14T09:58:56;1.75;;;1.65;;
16254;SDS011;8235;52.198;9.904;2023-06-14T10:01:23;1.95;;;1.42;;
16254;SDS011;8235;52.198;9.904;2023-06-14T10:03:52;1.60;;;1.20;;
16254;SDS011;8235;52.198;9.904;2023-06-14T10:06:22;1.40;;;1.20;;
16254;SDS011;8235;52.198;9.904;2023-06-14T10:08:50;1.70;;;1.60;;
16254;SDS011;8235;52.198;9.904;2023-06-14T10:11:19;2.35;;;1.50;;
16254;SDS011;8235;52.198;9.904;2023-06-14T10:13:47;1.90;;;1.70;;
16254;SDS011;8235;52.198;9.904;2023-06-14T10:16:17;1.73;;;1.30;;
16254;SDS011;8235;52.198;9.904;2023-06-14T10:18:51;4.38;;;1.50;;
16254;SDS011;8235;52.198;9.904;2023-06-14T10:21:36;3.22;;;1.33;;
16254;SDS011;8235;52.198;9.904;2023-06-14T10:24:08;2.22;;;1.38;;
16254;SDS011;8235;52.198;9.904;2023-06-14T10:26:49;1.42;;;1.30;;
16254;SDS011;8235;52.198;9.904;2023-06-14T10:29:18;1.55;;;1.45;;
16254;SDS011;8235;52.198;9.904;2023-06-14T10:31:45;1.63;;;1.52;;
16254;SDS011;8235;52.198;9.904;2023-06-14T10:34:20;2.20;;;1.48;;
16254;SDS011;8235;52.198;9.904;2023-06-14T10:36:59;1.55;;;1.45;;
16254;SDS011;8235;52.198;9.904;2023-06-14T10:39:28;1.50;;;1.40;;
16254;SDS011;8235;52.198;9.904;2023-06-14T10:41:55;1.70;;;1.60;;
16254;SDS011;8235;52.198;9.904;2023-06-14T10:47:20;1.50;;;1.40;;
16254;SDS011;8235;52.198;9.904;2023-06-14T10:49:50;2.88;;;1.77;;
16254;SDS011;8235;52.198;9.904;2023-06-14T10:52:20;2.58;;;1.90;;
16254;SDS011;8235;52.198;9.904;2023-06-14T10:55:00;1.95;;;1.75;;
16254;SDS011;8235;52.198;9.904;2023-06-14T10:57:36;2.00;;;1.80;;
16254;SDS011;8235;52.198;9.904;2023-06-14T11:00:08;2.45;;;1.60;;
16254;SDS011;8235;52.198;9.904;2023-06-14T11:05:51;1.95;;;1.50;;
16254;SDS011;8235;52.198;9.904;2023-06-14T11:08:27;1.85;;;1.75;;
16254;SDS011;8235;52.198;9.904;2023-06-14T11:11:05;1.98;;;1.65;;
16254;SDS011;8235;52.198;9.904;2023-06-14T11:13:33;3.42;;;1.70;;
16254;SDS011;8235;52.198;9.904;2023-06-14T11:18:44;2.40;;;1.80;;
16254;SDS011;8235;52.198;9.904;2023-06-14T11:21:11;2.00;;;1.90;;
16254;SDS011;8235;52.198;9.904;2023-06-14T11:23:37;2.10;;;1.75;;
16254;SDS011;8235;52.198;9.904;2023-06-14T11:26:04;2.38;;;2.00;;
16254;SDS011;8235;52.198;9.904;2023-06-14T11:28:37;2.28;;;2.00;;
16254;SDS011;8235;52.198;9.904;2023-06-14T11:31:05;2.15;;;1.90;;
16254;SDS011;8235;52.198;9.904;2023-06-14T11:33:33;2.75;;;2.00;;
16254;SDS011;8235;52.198;9.904;2023-06-14T11:36:01;4.15;;;2.10;;
16254;SDS011;8235;52.198;9.904;2023-06-14T11:38:28;2.47;;;2.20;;
16254;SDS011;8235;52.198;9.904;2023-06-14T11:40:58;3.35;;;1.95;;
16254;SDS011;8235;52.198;9.904;2023-06-14T11:43:25;1.98;;;1.88;;
16254;SDS011;8235;52.198;9.904;2023-06-14T11:45:52;2.10;;;1.92;;
16254;SDS011;8235;52.198;9.904;2023-06-14T11:48:18;3.63;;;1.90;;
16254;SDS011;8235;52.198;9.904;2023-06-14T11:50:49;2.40;;;2.20;;
16254;SDS011;8235;52.198;9.904;2023-06-14T11:53:16;3.55;;;2.05;;
16254;SDS011;8235;52.198;9.904;2023-06-14T11:55:42;2.72;;;2.25;;
16254;SDS011;8235;52.198;9.904;2023-06-14T11:58:11;2.97;;;2.38;;
16254;SDS011;8235;52.198;9.904;2023-06-14T12:00:38;2.05;;;1.90;;
16254;SDS011;8235;52.198;9.904;2023-06-14T12:03:05;2.95;;;1.90;;
16254;SDS011;8235;52.198;9.904;2023-06-14T12:05:32;4.40;;;2.17;;
16254;SDS011;8235;52.198;9.904;2023-06-14T12:08:02;5.45;;;2.47;;
16254;SDS011;8235;52.198;9.904;2023-06-14T12:10:31;6.65;;;2.42;;
16254;SDS011;8235;52.198;9.904;2023-06-14T12:13:08;3.25;;;2.15;;
16254;SDS011;8235;52.198;9.904;2023-06-14T12:15:35;3.13;;;2.50;;
16254;SDS011;8235;52.198;9.904;2023-06-14T12:18:04;3.28;;;1.80;;
16254;SDS011;8235;52.198;9.904;2023-06-14T12:20:33;3.67;;;1.90;;
16254;SDS011;8235;52.198;9.904;2023-06-14T12:23:03;6.65;;;2.03;;
16254;SDS011;8235;52.198;9.904;2023-06-14T12:25:30;2.45;;;2.17;;
16254;SDS011;8235;52.198;9.904;2023-06-14T12:27:58;3.35;;;2.28;;
16254;SDS011;8235;52.198;9.904;2023-06-14T12:30:25;4.95;;;2.33;;
16254;SDS011;8235;52.198;9.904;2023-06-14T12:32:52;3.28;;;2.47;;
16254;SDS011;8235;52.198;9.904;2023-06-14T12:35:18;4.40;;;2.28;;
16254;SDS011;8235;52.198;9.904;2023-06-14T12:37:45;3.65;;;2.30;;
16254;SDS011;8235;52.198;9.904;2023-06-14T12:40:13;3.70;;;2.40;;
16254;SDS011;8235;52.198;9.904;2023-06-14T12:42:40;3.72;;;2.03;;
16254;SDS011;8235;52.198;9.904;2023-06-14T12:45:07;6.57;;;2.30;;
16254;SDS011;8235;52.198;9.904;2023-06-14T12:47:35;2.45;;;2.13;;
16254;SDS011;8235;52.198;9.904;2023-06-14T12:50:02;2.95;;;2.42;;
16254;SDS011;8235;52.198;9.904;2023-06-14T12:52:29;3.22;;;2.30;;
16254;SDS011;8235;52.198;9.904;2023-06-14T12:54:55;3.75;;;2.60;;
16254;SDS011;8235;52.198;9.904;2023-06-14T12:57:23;5.60;;;2.35;;
16254;SDS011;8235;52.198;9.904;2023-06-14T12:59:56;3.75;;;2.63;;
16254;SDS011;8235;52.198;9.904;2023-06-14T13:02:22;2.50;;;2.28;;
16254;SDS011;8235;52.198;9.904;2023-06-14T13:04:49;3.20;;;2.47;;
16254;SDS011;8235;52.198;9.904;2023-06-14T13:07:16;2.97;;;2.38;;
16254;SDS011;8235;52.198;9.904;2023-06-14T13:09:43;4.38;;;2.40;;
16254;SDS011;8235;52.198;9.904;2023-06-14T13:12:10;2.72;;;2.53;;
16254;SDS011;8235;52.198;9.904;2023-06-14T13:14:39;2.75;;;2.55;;
16254;SDS011;8235;52.198;9.904;2023-06-14T13:17:07;4.38;;;2.90;;
16254;SDS011;8235;52.198;9.904;2023-06-14T13:19:34;4.07;;;2.40;;
16254;SDS011;8235;52.198;9.904;2023-06-14T13:22:01;3.90;;;2.60;;
16254;SDS011;8235;52.198;9.904;2023-06-14T13:24:27;5.03;;;2.97;;
16254;SDS011;8235;52.198;9.904;2023-06-14T13:26:54;4.28;;;2.50;;
16254;SDS011;8235;52.198;9.904;2023-06-14T13:29:21;5.43;;;2.83;;
16254;SDS011;8235;52.198;9.904;2023-06-14T13:31:49;4.03;;;3.30;;
16254;SDS011;8235;52.198;9.904;2023-06-14T13:34:15;3.72;;;2.50;;
16254;SDS011;8235;52.198;9.904;2023-06-14T13:36:42;5.20;;;3.15;;
16254;SDS011;8235;52.198;9.904;2023-06-14T13:39:08;6.97;;;2.88;;
16254;SDS011;8235;52.198;9.904;2023-06-14T13:41:35;3.13;;;2.78;;
16254;SDS011;8235;52.198;9.904;2023-06-14T13:44:02;4.55;;;2.65;;
16254;SDS011;8235;52.198;9.904;2023-06-14T13:46:30;3.53;;;2.40;;
16254;SDS011;8235;52.198;9.904;2023-06-14T13:48:58;7.63;;;2.60;;
16254;SDS011;8235;52.198;9.904;2023-06-14T13:51:26;4.97;;;2.65;;
16254;SDS011;8235;52.198;9.904;2023-06-14T13:53:53;4.15;;;2.60;;
16254;SDS011;8235;52.198;9.904;2023-06-14T13:56:20;3.90;;;2.38;;
16254;SDS011;8235;52.198;9.904;2023-06-14T13:58:49;7.38;;;2.80;;
16254;SDS011;8235;52.198;9.904;2023-06-14T14:01:15;4.70;;;2.53;;
16254;SDS011;8235;52.198;9.904;2023-06-14T14:03:43;3.85;;;2.63;;
16254;SDS011;8235;52.198;9.904;2023-06-14T14:06:11;2.95;;;2.60;;
16254;SDS011;8235;52.198;9.904;2023-06-14T14:08:38;5.00;;;2.65;;
16254;SDS011;8235;52.198;9.904;2023-06-14T14:11:04;5.05;;;2.83;;
16254;SDS011;8235;52.198;9.904;2023-06-14T14:13:32;7.07;;;2.72;;
16254;SDS011;8235;52.198;9.904;2023-06-14T14:16:01;3.33;;;2.50;;
16254;SDS011;8235;52.198;9.904;2023-06-14T14:18:27;5.55;;;2.75;;
16254;SDS011;8235;52.198;9.904;2023-06-14T14:20:54;2.97;;;2.40;;
16254;SDS011;8235;52.198;9.904;2023-06-14T14:23:22;4.25;;;2.60;;
16254;SDS011;8235;52.198;9.904;2023-06-14T14:25:48;3.10;;;2.63;;
16254;SDS011;8235;52.198;9.904;2023-06-14T14:28:15;7.03;;;2.70;;
16254;SDS011;8235;52.198;9.904;2023-06-14T14:30:44;2.85;;;2.53;;
16254;SDS011;8235;52.198;9.904;2023-06-14T14:33:12;7.13;;;2.90;;
16254;SDS011;8235;52.198;9.904;2023-06-14T14:35:40;3.97;;;2.90;;
16254;SDS011;8235;52.198;9.904;2023-06-14T14:38:07;5.38;;;2.67;;
16254;SDS011;8235;52.198;9.904;2023-06-14T14:40:36;6.30;;;2.90;;
16254;SDS011;8235;52.198;9.904;2023-06-14T14:43:02;4.90;;;2.90;;
16254;SDS011;8235;52.198;9.904;2023-06-14T14:45:28;4.35;;;3.08;;
16254;SDS011;8235;52.198;9.904;2023-06-14T14:47:55;3.80;;;2.63;;
16254;SDS011;8235;52.198;9.904;2023-06-14T14:50:21;5.03;;;2.80;;
16254;SDS011;8235;52.198;9.904;2023-06-14T14:52:48;2.97;;;2.65;;
16254;SDS011;8235;52.198;9.904;2023-06-14T14:55:14;3.13;;;2.63;;
16254;SDS011;8235;52.198;9.904;2023-06-14T14:57:42;3.63;;;2.80;;
16254;SDS011;8235;52.198;9.904;2023-06-14T15:00:09;5.28;;;3.00;;
16254;SDS011;8235;52.198;9.904;2023-06-14T15:02:36;5.22;;;2.88;;
16254;SDS011;8235;52.198;9.904;2023-06-14T15:05:02;3.33;;;2.72;;
16254;SDS011;8235;52.198;9.904;2023-06-14T15:07:30;3.60;;;2.95;;
16254;SDS011;8235;52.198;9.904;2023-06-14T15:09:58;4.45;;;2.70;;
16254;SDS011;8235;52.198;9.904;2023-06-14T15:12:25;5.28;;;3.00;;